createdAt,value
2023-05-21T13:03:39.983Z,100181.66
2023-05-21T13:11:10.708Z,100171.53
2023-05-21T13:16:13.694Z,100170.00
2023-05-21T13:21:16.556Z,100162.50
2023-05-21T13:26:21.237Z,100165.50
2023-05-21T13:31:24.141Z,100149.28
2023-05-21T13:36:26.932Z,100156.88
2023-05-21T13:41:31.427Z,100158.06
2023-05-21T13:46:39.445Z,100155.63
2023-05-21T13:51:42.416Z,100152.75
2023-05-21T13:56:46.617Z,100155.88
2023-05-21T14:01:50.493Z,100149.72
2023-05-21T14:06:53.516Z,100157.22
2023-05-21T14:11:58.788Z,100157.56
2023-05-21T14:17:01.728Z,100151.19
2023-05-21T14:22:04.611Z,100137.44
2023-05-21T14:27:08.950Z,100136.78
2023-05-21T14:32:16.122Z,100142.41
2023-05-21T14:37:21.373Z,100142.59
2023-05-21T14:42:25.692Z,100138.25
2023-05-21T14:47:28.740Z,100146.91
2023-05-21T14:52:31.630Z,100141.53
2023-05-21T14:57:36.079Z,100146.53
2023-05-21T15:02:39.170Z,100145.75
2023-05-21T15:07:42.067Z,100140.41
2023-05-21T15:12:46.263Z,100145.81
2023-05-21T15:17:49.670Z,100141.13
2023-05-21T15:22:56.866Z,100135.88
2023-05-21T15:28:09.523Z,100137.22
2023-05-21T15:33:12.510Z,100142.88
2023-05-21T15:38:15.394Z,100145.97
2023-05-21T15:43:20.298Z,100126.44
2023-05-21T15:48:23.427Z,100133.38
2023-05-21T15:53:26.262Z,100128.06
2023-05-21T15:58:31.178Z,100121.94
2023-05-21T16:03:33.986Z,100121.56
2023-05-21T16:08:36.864Z,100124.09
2023-05-21T16:13:41.093Z,100121.50
2023-05-21T16:18:43.999Z,100122.69
2023-05-21T16:23:46.904Z,100116.19
2023-05-21T16:28:51.257Z,100115.22
2023-05-21T16:33:54.213Z,100113.66
2023-05-21T16:38:56.969Z,100116.09
2023-05-21T16:44:01.097Z,100114.81
2023-05-21T16:49:03.974Z,100111.72
2023-05-21T16:54:06.753Z,100107.81
2023-05-21T16:59:10.994Z,100113.34
2023-05-21T17:04:13.769Z,100118.91
2023-05-21T17:09:18.109Z,100122.28
2023-05-21T17:14:33.151Z,100119.91
2023-05-21T17:19:37.496Z,100117.81
2023-05-21T17:24:40.470Z,100115.19
2023-05-21T17:29:44.585Z,100108.47
2023-05-21T17:34:47.518Z,100114.19
2023-05-21T17:39:50.448Z,100113.41
2023-05-21T17:44:54.754Z,100112.22
2023-05-21T17:49:57.686Z,100112.53
2023-05-21T17:55:00.920Z,100118.81
2023-05-21T18:00:07.006Z,100121.53
2023-05-21T18:05:19.005Z,100124.69
2023-05-21T18:10:22.016Z,100128.56
2023-05-21T18:15:26.448Z,100128.75
2023-05-21T18:20:30.056Z,100132.34
2023-05-21T18:25:33.117Z,100142.09
2023-05-21T18:30:38.026Z,100135.63
2023-05-21T18:35:42.369Z,100133.25
2023-05-21T18:40:45.394Z,100134.00
2023-05-21T18:45:49.517Z,100143.97
2023-05-21T18:50:52.948Z,100152.78
2023-05-21T18:55:55.966Z,100149.91
2023-05-21T19:01:00.206Z,100153.78
2023-05-21T19:06:03.525Z,100162.88
2023-05-21T19:11:07.433Z,100164.28
2023-05-21T19:16:11.834Z,100172.31
2023-05-21T19:21:14.832Z,100168.69
2023-05-21T19:26:17.740Z,100177.09
2023-05-21T19:31:22.284Z,100178.38
2023-05-21T19:36:25.465Z,100180.69
2023-05-21T19:41:28.442Z,100174.53
2023-05-21T19:46:33.060Z,100165.00
2023-05-21T19:51:35.990Z,100171.16
2023-05-21T19:56:38.908Z,100170.63
2023-05-21T20:01:44.325Z,100173.16
2023-05-21T20:06:47.278Z,100171.81
2023-05-21T20:11:50.202Z,100174.81
2023-05-21T20:16:54.611Z,100173.00
2023-05-21T20:21:58.028Z,100176.59
2023-05-21T20:27:01.703Z,100176.75
2023-05-21T20:32:06.987Z,100172.72
2023-05-21T20:37:09.945Z,100167.03
2023-05-21T20:42:14.974Z,100163.38
2023-05-21T20:47:20.193Z,100168.06
2023-05-21T20:52:23.753Z,100171.00
2023-05-21T20:57:27.380Z,100175.25
2023-05-21T21:02:32.705Z,100180.22
2023-05-21T21:07:36.883Z,100181.06
2023-05-21T21:12:39.598Z,100182.34
2023-05-21T21:17:43.798Z,100179.59
2023-05-21T21:22:47.260Z,100184.59
2023-05-21T21:27:50.371Z,100193.69
2023-05-21T21:32:54.646Z,100184.47
2023-05-21T21:37:57.611Z,100185.50
2023-05-21T21:43:00.400Z,100191.69
2023-05-21T21:48:04.796Z,100189.69
2023-05-21T21:53:07.654Z,100190.97
2023-05-21T21:58:10.475Z,100184.03
2023-05-21T22:03:14.886Z,100191.88
2023-05-21T22:08:17.918Z,100187.41
2023-05-21T22:13:20.745Z,100188.22
2023-05-21T22:18:39.463Z,100181.88
2023-05-21T22:23:43.410Z,100186.00
2023-05-21T22:28:46.251Z,100180.94
2023-05-21T22:33:50.367Z,100187.94
2023-05-21T22:38:53.298Z,100176.44
2023-05-21T22:43:56.149Z,100171.53
2023-05-21T22:49:00.702Z,100171.56
2023-05-21T22:54:03.572Z,100174.03
2023-05-21T22:59:06.339Z,100165.84
2023-05-21T23:04:10.527Z,100170.19
2023-05-21T23:09:14.020Z,100169.84
2023-05-21T23:14:16.758Z,100166.38
2023-05-21T23:19:21.279Z,100170.47
2023-05-21T23:24:24.276Z,100170.50
2023-05-21T23:29:27.020Z,100167.44
2023-05-21T23:34:31.331Z,100168.09
2023-05-21T23:39:34.138Z,100165.00
2023-05-21T23:44:36.880Z,100165.59
2023-05-21T23:49:41.435Z,100163.97
2023-05-21T23:54:44.204Z,100167.66
2023-05-21T23:59:46.972Z,100168.09
